Time;durP1;ratioP1;P1;durP2;ratioP2;P2;SDS_P1;SDS_P2;PMS_P1;PMS_P2;Temp;Humidity;BMP_temperature;BMP_pressure;BME280_temperature;BME280_humidity;BME280_pressure;Samples;Min_cycle;Max_cycle;Signal;HPM_P1;HPM_P2
2023/08/08 00:00:09;;;;;;;6.80;2.38;;;;;;;;;;5048409;28;20029;-68
2023/08/08 00:02:35;;;;;;;5.97;3.03;;;;;;;;;;5048648;28;20016;-68
2023/08/08 00:05:00;;;;;;;5.63;2.58;;;;;;;;;;5049176;28;20026;-68
2023/08/08 00:07:30;;;;;;;8.60;2.40;;;;;;;;;;5049084;28;20037;-68
2023/08/08 00:09:55;;;;;;;4.82;2.45;;;;;;;;;;5047998;28;20079;-68
2023/08/08 00:12:21;;;;;;;5.68;2.53;;;;;;;;;;5049834;28;20041;-68
2023/08/08 00:14:46;;;;;;;5.82;2.65;;;;;;;;;;5049359;28;20045;-68
2023/08/08 00:17:11;;;;;;;5.60;2.20;;;;;;;;;;5049734;28;20025;-68
2023/08/08 00:19:37;;;;;;;7.25;2.38;;;;;;;;;;5049881;28;20682;-68
2023/08/08 00:22:03;;;;;;;5.85;2.60;;;;;;;;;;5049137;28;20079;-68
2023/08/08 00:24:28;;;;;;;9.45;2.63;;;;;;;;;;5049232;28;20522;-68
2023/08/08 00:26:54;;;;;;;7.75;2.70;;;;;;;;;;5052139;28;20036;-68
2023/08/08 00:29:19;;;;;;;5.65;2.67;;;;;;;;;;5058088;28;20080;-68
2023/08/08 00:31:45;;;;;;;6.85;2.15;;;;;;;;;;5051988;28;20033;-68
2023/08/08 00:34:10;;;;;;;11.00;2.88;;;;;;;;;;5049074;28;20205;-68
2023/08/08 00:36:36;;;;;;;4.25;2.40;;;;;;;;;;5049155;28;20410;-68
2023/08/08 00:39:01;;;;;;;5.70;2.33;;;;;;;;;;5048336;28;20512;-68
2023/08/08 00:41:26;;;;;;;7.82;2.35;;;;;;;;;;5048997;28;20249;-68
2023/08/08 00:43:52;;;;;;;5.75;2.33;;;;;;;;;;5063982;28;20025;-68
2023/08/08 00:46:21;;;;;;;5.93;2.50;;;;;;;;;;5049042;28;20045;-68
2023/08/08 00:48:46;;;;;;;6.53;2.58;;;;;;;;;;5048733;28;20026;-68
2023/08/08 00:51:12;;;;;;;10.85;2.53;;;;;;;;;;5047309;28;20039;-68
2023/08/08 00:53:37;;;;;;;5.68;2.17;;;;;;;;;;5049156;28;20028;-68
2023/08/08 00:56:03;;;;;;;7.18;2.97;;;;;;;;;;5048228;28;20029;-68
2023/08/08 00:58:28;;;;;;;6.05;2.47;;;;;;;;;;5048376;28;20124;-68
2023/08/08 01:00:57;;;;;;;7.53;2.45;;;;;;;;;;5048078;28;20053;-68
2023/08/08 01:03:22;;;;;;;5.10;2.25;;;;;;;;;;5046017;28;20136;-68
2023/08/08 01:05:54;;;;;;;9.25;2.75;;;;;;;;;;5047156;28;20553;-68
2023/08/08 01:08:24;;;;;;;5.85;2.75;;;;;;;;;;5048593;28;20024;-69
2023/08/08 01:10:50;;;;;;;4.38;2.60;;;;;;;;;;5047947;28;20623;-68
2023/08/08 01:13:21;;;;;;;5.90;2.53;;;;;;;;;;5048077;28;20044;-68
2023/08/08 01:15:49;;;;;;;10.45;2.97;;;;;;;;;;5045935;28;20932;-68
2023/08/08 01:18:15;;;;;;;5.45;2.50;;;;;;;;;;5048559;28;20032;-68
2023/08/08 01:20:42;;;;;;;8.30;2.60;;;;;;;;;;5049050;28;20066;-68
2023/08/08 01:23:44;;;;;;;6.25;2.28;;;;;;;;;;5048641;28;20640;-68
2023/08/08 01:26:10;;;;;;;6.53;2.63;;;;;;;;;;5048704;28;20560;-68
2023/08/08 01:28:36;;;;;;;3.75;2.40;;;;;;;;;;5047008;28;20025;-69
2023/08/08 01:31:02;;;;;;;9.40;2.58;;;;;;;;;;5048090;28;20025;-68
2023/08/08 01:33:27;;;;;;;10.70;2.67;;;;;;;;;;5048508;28;20036;-68
2023/08/08 01:35:56;;;;;;;8.85;2.92;;;;;;;;;;5047801;28;20009;-68
2023/08/08 01:38:36;;;;;;;7.70;2.70;;;;;;;;;;5047743;28;20083;-68
2023/08/08 01:41:04;;;;;;;6.50;2.10;;;;;;;;;;5048157;28;20387;-68
2023/08/08 01:43:31;;;;;;;6.38;2.50;;;;;;;;;;5048088;28;20048;-68
2023/08/08 01:45:56;;;;;;;6.55;2.53;;;;;;;;;;5048090;28;20037;-68
2023/08/08 01:48:22;;;;;;;6.75;2.70;;;;;;;;;;5048486;28;20083;-68
2023/08/08 01:50:47;;;;;;;4.88;2.13;;;;;;;;;;5049984;28;20036;-68
2023/08/08 01:53:13;;;;;;;7.97;2.65;;;;;;;;;;5050964;28;20555;-68
2023/08/08 01:55:38;;;;;;;6.85;2.50;;;;;;;;;;5029834;28;20059;-68
2023/08/08 01:58:04;;;;;;;5.65;2.60;;;;;;;;;;5039436;28;20045;-68
2023/08/08 02:00:29;;;;;;;4.85;2.45;;;;;;;;;;5048026;28;20532;-68
2023/08/08 02:02:54;;;;;;;7.60;2.22;;;;;;;;;;5047306;28;20032;-68
2023/08/08 02:05:20;;;;;;;9.55;2.50;;;;;;;;;;5046479;28;20024;-68
2023/08/08 02:07:45;;;;;;;4.68;2.58;;;;;;;;;;5046334;28;20099;-68
2023/08/08 02:10:10;;;;;;;5.10;2.30;;;;;;;;;;5038035;28;20032;-68
2023/08/08 02:12:36;;;;;;;8.98;2.65;;;;;;;;;;5045662;28;20305;-68
2023/08/08 02:15:01;;;;;;;6.38;2.30;;;;;;;;;;5047367;28;20025;-68
2023/08/08 02:17:27;;;;;;;4.35;2.50;;;;;;;;;;5046864;28;20513;-68
2023/08/08 02:19:53;;;;;;;6.55;2.60;;;;;;;;;;5047063;28;20526;-68
2023/08/08 02:22:18;;;;;;;10.20;2.95;;;;;;;;;;5046645;28;20041;-68
2023/08/08 02:24:43;;;;;;;8.63;2.70;;;;;;;;;;5047213;28;20075;-68
2023/08/08 02:27:09;;;;;;;8.35;2.45;;;;;;;;;;5041770;28;20033;-68
2023/08/08 02:29:34;;;;;;;8.52;2.65;;;;;;;;;;5026380;28;20088;-68
2023/08/08 02:32:00;;;;;;;5.97;2.60;;;;;;;;;;4991124;28;20057;-68
2023/08/08 02:34:25;;;;;;;10.85;2.97;;;;;;;;;;5007297;28;20038;-68
2023/08/08 02:36:51;;;;;;;6.20;3.15;;;;;;;;;;5007334;28;20519;-68
2023/08/08 02:39:16;;;;;;;6.03;2.65;;;;;;;;;;5006842;28;20034;-68
2023/08/08 02:41:42;;;;;;;6.00;2.75;;;;;;;;;;5007242;28;20101;-68
2023/08/08 02:44:08;;;;;;;5.75;2.97;;;;;;;;;;5026859;28;20481;-68
2023/08/08 02:46:33;;;;;;;7.93;2.60;;;;;;;;;;5026833;28;20041;-68
2023/08/08 02:48:58;;;;;;;8.80;3.13;;;;;;;;;;5026831;28;20033;-68
2023/08/08 02:51:24;;;;;;;7.03;2.92;;;;;;;;;;5026984;28;20065;-68
2023/08/08 02:53:49;;;;;;;8.55;2.60;;;;;;;;;;5025441;28;20116;-67
2023/08/08 02:56:14;;;;;;;8.60;2.65;;;;;;;;;;5007683;28;20032;-68
2023/08/08 02:58:40;;;;;;;8.43;2.70;;;;;;;;;;5007312;28;20084;-68
2023/08/08 03:01:05;;;;;;;12.27;2.83;;;;;;;;;;4988809;28;20026;-68
2023/08/08 03:03:30;;;;;;;10.98;3.10;;;;;;;;;;5007660;28;20128;-68
2023/08/08 03:05:56;;;;;;;6.57;3.08;;;;;;;;;;5008083;28;20060;-68
2023/08/08 03:08:21;;;;;;;4.70;2.50;;;;;;;;;;5009518;28;20034;-68
2023/08/08 03:10:46;;;;;;;8.50;2.85;;;;;;;;;;5007465;28;20668;-68
2023/08/08 03:13:12;;;;;;;6.68;2.95;;;;;;;;;;5008674;28;20026;-68
2023/08/08 03:15:37;;;;;;;7.20;2.50;;;;;;;;;;5006722;28;20121;-68
2023/08/08 03:18:03;;;;;;;8.45;2.85;;;;;;;;;;4992616;28;20038;-68
2023/08/08 03:20:28;;;;;;;7.45;3.05;;;;;;;;;;4992376;28;20022;-68
2023/08/08 03:22:53;;;;;;;7.80;2.95;;;;;;;;;;5005533;28;20032;-68
2023/08/08 03:25:19;;;;;;;5.30;2.67;;;;;;;;;;5005184;28;20041;-68
2023/08/08 03:27:44;;;;;;;5.18;2.85;;;;;;;;;;5010486;28;20037;-68
2023/08/08 03:30:10;;;;;;;6.25;3.00;;;;;;;;;;5024933;28;20087;-68
2023/08/08 03:32:35;;;;;;;7.97;2.95;;;;;;;;;;5030021;28;20025;-68
2023/08/08 03:35:01;;;;;;;7.68;2.85;;;;;;;;;;5010651;28;20030;-68
2023/08/08 03:37:26;;;;;;;6.10;3.00;;;;;;;;;;5045992;28;20600;-68
2023/08/08 03:39:51;;;;;;;11.38;3.08;;;;;;;;;;5050140;28;20029;-68
2023/08/08 03:42:17;;;;;;;7.32;2.28;;;;;;;;;;5050239;28;20029;-68
2023/08/08 03:44:42;;;;;;;6.78;3.10;;;;;;;;;;5050686;28;20075;-68
2023/08/08 03:47:08;;;;;;;13.15;3.22;;;;;;;;;;5065321;28;20063;-68
2023/08/08 03:49:33;;;;;;;7.35;2.70;;;;;;;;;;5050052;28;20033;-68
2023/08/08 03:51:58;;;;;;;9.98;3.03;;;;;;;;;;5049910;28;20041;-68
2023/08/08 03:54:24;;;;;;;8.07;2.97;;;;;;;;;;5034170;28;20060;-68
2023/08/08 03:56:49;;;;;;;8.73;3.00;;;;;;;;;;5029685;28;20025;-68
2023/08/08 03:59:15;;;;;;;8.10;3.25;;;;;;;;;;5030019;28;20087;-68
2023/08/08 04:01:40;;;;;;;10.98;2.97;;;;;;;;;;5030479;28;20109;-68
2023/08/08 04:04:05;;;;;;;6.72;2.85;;;;;;;;;;5029802;28;20120;-68
2023/08/08 04:06:31;;;;;;;6.15;2.95;;;;;;;;;;5027927;28;20037;-68
2023/08/08 04:08:56;;;;;;;6.72;2.83;;;;;;;;;;5029374;28;20083;-68
2023/08/08 04:11:21;;;;;;;15.38;2.90;;;;;;;;;;5029836;28;20092;-68
2023/08/08 04:13:47;;;;;;;5.40;2.50;;;;;;;;;;5029771;28;20033;-68
2023/08/08 04:16:12;;;;;;;10.75;2.90;;;;;;;;;;5041548;28;20107;-68
2023/08/08 04:18:38;;;;;;;8.00;3.35;;;;;;;;;;5040830;28;20041;-68
2023/08/08 04:21:03;;;;;;;5.95;2.72;;;;;;;;;;5028946;28;20053;-68
2023/08/08 04:23:29;;;;;;;10.85;2.92;;;;;;;;;;5011508;28;20461;-68
2023/08/08 04:25:55;;;;;;;7.60;3.10;;;;;;;;;;5047493;28;20029;-68
2023/08/08 04:28:20;;;;;;;6.30;2.78;;;;;;;;;;5035350;28;20044;-68
2023/08/08 04:30:46;;;;;;;8.15;2.70;;;;;;;;;;5029624;28;20037;-68
2023/08/08 04:33:11;;;;;;;8.40;2.92;;;;;;;;;;5029723;28;20436;-68
2023/08/08 04:35:36;;;;;;;5.78;3.17;;;;;;;;;;5030059;28;20613;-68
2023/08/08 04:38:02;;;;;;;8.23;2.88;;;;;;;;;;5033453;28;20042;-68
2023/08/08 04:40:27;;;;;;;5.28;2.72;;;;;;;;;;5039113;28;20049;-68
2023/08/08 04:42:53;;;;;;;8.68;3.10;;;;;;;;;;5030014;28;20044;-68
2023/08/08 04:45:18;;;;;;;9.27;3.05;;;;;;;;;;5027551;28;20041;-68
2023/08/08 04:47:44;;;;;;;6.70;2.70;;;;;;;;;;5022691;28;20095;-68
2023/08/08 04:50:10;;;;;;;15.05;2.95;;;;;;;;;;5029880;28;20029;-68
2023/08/08 04:52:35;;;;;;;10.35;3.40;;;;;;;;;;5028760;28;20029;-68
2023/08/08 04:55:01;;;;;;;6.00;2.90;;;;;;;;;;5028841;28;20029;-68
2023/08/08 04:57:26;;;;;;;8.27;4.15;;;;;;;;;;5028462;28;20426;-68
2023/08/08 04:59:52;;;;;;;8.88;3.33;;;;;;;;;;5028415;28;20025;-68
2023/08/08 05:02:17;;;;;;;9.45;2.90;;;;;;;;;;5029259;28;20028;-68
2023/08/08 05:04:43;;;;;;;8.95;2.40;;;;;;;;;;5045633;28;20044;-68
2023/08/08 05:07:08;;;;;;;9.40;3.25;;;;;;;;;;5030563;28;20043;-68
2023/08/08 05:09:33;;;;;;;9.40;2.90;;;;;;;;;;5029493;28;20044;-68
2023/08/08 05:11:59;;;;;;;6.20;2.88;;;;;;;;;;5047030;28;20017;-68
2023/08/08 05:14:24;;;;;;;8.90;2.80;;;;;;;;;;5047188;28;20482;-69
2023/08/08 05:16:49;;;;;;;6.65;2.67;;;;;;;;;;5028791;28;20037;-69
2023/08/08 05:19:15;;;;;;;10.93;3.35;;;;;;;;;;5042564;28;20068;-69
2023/08/08 05:21:40;;;;;;;4.65;2.60;;;;;;;;;;5043342;28;20057;-69
2023/08/08 05:24:05;;;;;;;13.20;2.95;;;;;;;;;;5024643;28;20458;-69
2023/08/08 05:26:31;;;;;;;13.52;3.00;;;;;;;;;;5007733;28;20029;-69
2023/08/08 05:28:56;;;;;;;13.38;3.00;;;;;;;;;;5019655;28;20075;-69
2023/08/08 05:31:22;;;;;;;10.73;2.97;;;;;;;;;;5045658;28;20052;-69
2023/08/08 05:33:48;;;;;;;7.43;2.67;;;;;;;;;;5038335;28;20525;-69
2023/08/08 05:36:14;;;;;;;8.23;2.40;;;;;;;;;;5032290;28;20029;-69
2023/08/08 05:38:40;;;;;;;11.70;2.85;;;;;;;;;;5049083;28;20095;-69
2023/08/08 05:41:06;;;;;;;8.60;3.00;;;;;;;;;;5028085;28;20034;-69
2023/08/08 05:43:31;;;;;;;12.48;3.50;;;;;;;;;;5042824;28;20036;-69
2023/08/08 05:45:56;;;;;;;7.57;2.85;;;;;;;;;;5037765;28;20045;-69
2023/08/08 05:48:22;;;;;;;8.90;3.13;;;;;;;;;;5032666;28;20033;-68
2023/08/08 05:50:47;;;;;;;8.13;3.45;;;;;;;;;;5047705;28;20113;-68
2023/08/08 05:53:13;;;;;;;10.85;3.00;;;;;;;;;;5028333;28;20016;-67
2023/08/08 05:55:42;;;;;;;8.23;2.90;;;;;;;;;;5026326;28;20033;-69
2023/08/08 05:58:07;;;;;;;6.90;2.85;;;;;;;;;;5010715;28;20037;-69
2023/08/08 06:00:32;;;;;;;7.90;2.78;;;;;;;;;;5030356;28;20033;-69
2023/08/08 06:02:58;;;;;;;11.27;3.00;;;;;;;;;;5036578;28;20026;-69
2023/08/08 06:05:24;;;;;;;7.63;3.08;;;;;;;;;;5031127;28;20033;-69
2023/08/08 06:07:49;;;;;;;15.18;3.40;;;;;;;;;;5027628;28;20045;-69
2023/08/08 06:10:14;;;;;;;15.40;3.15;;;;;;;;;;5027375;28;20079;-69
2023/08/08 06:12:40;;;;;;;9.70;3.15;;;;;;;;;;5009182;28;20033;-69
2023/08/08 06:15:06;;;;;;;7.95;3.20;;;;;;;;;;5026620;28;20034;-69
2023/08/08 06:17:32;;;;;;;10.85;3.10;;;;;;;;;;5027793;28;20032;-69
2023/08/08 06:19:57;;;;;;;8.85;2.92;;;;;;;;;;5022929;28;20034;-69
2023/08/08 06:22:23;;;;;;;11.82;3.22;;;;;;;;;;5019587;28;20584;-69
2023/08/08 06:24:49;;;;;;;13.15;3.30;;;;;;;;;;5022406;28;20045;-69
2023/08/08 06:27:14;;;;;;;12.15;3.35;;;;;;;;;;5017898;28;20090;-69
2023/08/08 06:29:40;;;;;;;10.35;3.38;;;;;;;;;;5045101;28;20052;-69
2023/08/08 06:32:05;;;;;;;13.18;3.15;;;;;;;;;;5028502;28;20033;-69
2023/08/08 06:34:31;;;;;;;11.40;3.08;;;;;;;;;;5026614;28;20032;-68
2023/08/08 06:36:56;;;;;;;11.70;3.47;;;;;;;;;;5022679;28;20113;-69
2023/08/08 06:39:22;;;;;;;6.85;2.60;;;;;;;;;;5005782;28;20519;-69
2023/08/08 06:41:47;;;;;;;4.15;2.50;;;;;;;;;;5006267;28;20072;-69
2023/08/08 06:44:13;;;;;;;14.13;3.00;;;;;;;;;;5027629;28;20032;-69
2023/08/08 06:46:38;;;;;;;14.10;3.20;;;;;;;;;;5025490;28;20426;-69
2023/08/08 06:49:04;;;;;;;11.55;3.15;;;;;;;;;;5026953;28;20029;-69
2023/08/08 06:51:29;;;;;;;9.88;2.97;;;;;;;;;;5027490;28;20056;-69
2023/08/08 06:53:55;;;;;;;7.15;2.47;;;;;;;;;;5026510;28;20494;-69
2023/08/08 06:56:20;;;;;;;8.65;3.33;;;;;;;;;;5036799;28;20059;-69
2023/08/08 06:58:46;;;;;;;5.30;2.72;;;;;;;;;;5046658;28;20061;-69
2023/08/08 07:01:12;;;;;;;11.65;2.92;;;;;;;;;;5046377;28;20036;-69
2023/08/08 07:03:37;;;;;;;8.80;2.60;;;;;;;;;;5046576;28;20467;-69
2023/08/08 07:06:03;;;;;;;13.77;2.90;;;;;;;;;;5046476;28;20086;-69
2023/08/08 07:08:29;;;;;;;13.32;3.00;;;;;;;;;;5046934;28;20050;-69
2023/08/08 07:10:56;;;;;;;14.15;3.00;;;;;;;;;;5045726;28;20029;-69
2023/08/08 07:13:21;;;;;;;10.27;3.00;;;;;;;;;;5043299;28;20045;-69
2023/08/08 07:15:47;;;;;;;9.90;2.63;;;;;;;;;;5045774;28;20036;-69
2023/08/08 07:18:12;;;;;;;12.50;3.28;;;;;;;;;;5045220;28;20716;-68
2023/08/08 07:20:39;;;;;;;10.68;3.17;;;;;;;;;;5046692;28;20024;-68
2023/08/08 07:23:04;;;;;;;10.82;3.00;;;;;;;;;;5048403;28;20040;-69
2023/08/08 07:25:29;;;;;;;9.90;3.03;;;;;;;;;;5053674;28;20029;-69
2023/08/08 07:27:55;;;;;;;10.27;3.00;;;;;;;;;;5050701;28;20039;-69
2023/08/08 07:30:20;;;;;;;9.00;2.80;;;;;;;;;;5037898;28;20118;-69
2023/08/08 07:32:46;;;;;;;9.63;2.72;;;;;;;;;;5046641;28;20048;-68
2023/08/08 07:35:11;;;;;;;12.13;2.67;;;;;;;;;;5045524;28;20548;-69
2023/08/08 07:37:37;;;;;;;10.15;2.95;;;;;;;;;;5046141;28;20033;-68
2023/08/08 07:40:03;;;;;;;7.55;2.88;;;;;;;;;;5047775;28;20033;-69
2023/08/08 07:42:29;;;;;;;8.55;2.88;;;;;;;;;;5051950;28;20059;-69
2023/08/08 07:44:54;;;;;;;9.43;2.63;;;;;;;;;;5064602;28;20401;-69
2023/08/08 07:47:20;;;;;;;9.13;2.38;;;;;;;;;;5057952;28;20032;-69
2023/08/08 07:49:45;;;;;;;9.40;2.80;;;;;;;;;;5045185;28;20075;-69
2023/08/08 07:52:11;;;;;;;8.40;2.25;;;;;;;;;;5060994;28;20032;-69
2023/08/08 07:54:36;;;;;;;13.82;3.67;;;;;;;;;;5028798;28;20030;-69
2023/08/08 07:57:02;;;;;;;6.80;2.20;;;;;;;;;;5026635;28;20025;-69
2023/08/08 07:59:27;;;;;;;5.72;2.47;;;;;;;;;;5025912;28;20017;-69
2023/08/08 08:01:52;;;;;;;9.63;3.08;;;;;;;;;;5026718;28;20029;-69
2023/08/08 08:04:18;;;;;;;9.05;2.75;;;;;;;;;;5032822;28;20064;-68
2023/08/08 08:06:43;;;;;;;7.35;2.67;;;;;;;;;;5046415;28;20076;-68
2023/08/08 08:09:09;;;;;;;10.43;2.78;;;;;;;;;;5052305;28;20040;-68
2023/08/08 08:11:34;;;;;;;6.82;2.60;;;;;;;;;;5045921;28;20021;-69
2023/08/08 08:13:59;;;;;;;6.55;2.90;;;;;;;;;;5048886;28;20061;-69
2023/08/08 08:16:25;;;;;;;8.45;3.15;;;;;;;;;;5049031;28;20033;-69
2023/08/08 08:18:50;;;;;;;6.10;2.83;;;;;;;;;;5049229;28;20461;-69
2023/08/08 08:21:17;;;;;;;7.80;2.65;;;;;;;;;;5047851;28;20136;-69
2023/08/08 08:23:43;;;;;;;9.48;2.92;;;;;;;;;;5048931;28;20743;-68
2023/08/08 08:26:08;;;;;;;6.10;2.63;;;;;;;;;;5047650;28;20037;-69
2023/08/08 08:28:34;;;;;;;7.88;2.97;;;;;;;;;;5044968;28;20033;-68
2023/08/08 08:31:04;;;;;;;6.60;2.50;;;;;;;;;;5042515;28;20115;-69
2023/08/08 08:33:30;;;;;;;7.53;2.50;;;;;;;;;;5042139;28;20094;-68
2023/08/08 08:35:55;;;;;;;5.78;2.78;;;;;;;;;;5042617;28;20025;-69
2023/08/08 08:38:20;;;;;;;7.95;2.53;;;;;;;;;;5043691;28;20036;-69
2023/08/08 08:40:48;;;;;;;7.95;2.95;;;;;;;;;;5043852;28;20506;-69
2023/08/08 08:43:14;;;;;;;8.85;2.92;;;;;;;;;;5032153;28;20041;-68
2023/08/08 08:45:43;;;;;;;7.10;2.75;;;;;;;;;;5025658;28;20049;-68
2023/08/08 08:48:12;;;;;;;14.65;3.33;;;;;;;;;;5032679;28;20041;-68
2023/08/08 08:50:39;;;;;;;5.00;2.65;;;;;;;;;;5027378;28;20025;-68
2023/08/08 08:53:05;;;;;;;6.75;2.97;;;;;;;;;;5024967;28;20041;-68
2023/08/08 08:55:31;;;;;;;5.53;2.70;;;;;;;;;;5039041;28;20041;-68
2023/08/08 08:57:56;;;;;;;6.15;2.53;;;;;;;;;;5039423;28;20041;-68
2023/08/08 09:00:22;;;;;;;9.02;2.90;;;;;;;;;;5040496;28;20047;-68
2023/08/08 09:02:48;;;;;;;6.18;2.90;;;;;;;;;;5047188;28;20071;-68
2023/08/08 09:05:15;;;;;;;4.70;2.60;;;;;;;;;;5050161;28;20049;-69
2023/08/08 09:07:41;;;;;;;6.30;2.75;;;;;;;;;;5057349;28;20115;-68
2023/08/08 09:10:07;;;;;;;4.68;2.60;;;;;;;;;;5058284;28;20107;-69
2023/08/08 09:12:33;;;;;;;6.30;2.50;;;;;;;;;;5056661;28;20048;-69
2023/08/08 09:14:59;;;;;;;14.30;2.80;;;;;;;;;;5056374;28;20024;-68
2023/08/08 09:17:26;;;;;;;3.42;2.45;;;;;;;;;;5045449;28;20500;-68
2023/08/08 09:19:54;;;;;;;7.28;3.58;;;;;;;;;;5047468;28;20037;-68
2023/08/08 09:22:19;;;;;;;8.32;2.25;;;;;;;;;;5041949;28;20544;-68
2023/08/08 09:24:46;;;;;;;9.30;2.63;;;;;;;;;;5037561;28;20041;-68
2023/08/08 09:27:12;;;;;;;5.93;2.40;;;;;;;;;;5038407;28;20049;-68
2023/08/08 09:29:38;;;;;;;8.77;2.50;;;;;;;;;;5035559;28;20049;-69
2023/08/08 09:32:05;;;;;;;8.93;2.33;;;;;;;;;;5043004;28;20033;-68
2023/08/08 09:34:30;;;;;;;3.28;1.70;;;;;;;;;;5035275;28;20033;-69
2023/08/08 09:36:56;;;;;;;5.70;2.53;;;;;;;;;;5039387;28;20037;-69
2023/08/08 09:39:21;;;;;;;3.50;2.00;;;;;;;;;;5040569;28;20523;-68
2023/08/08 09:41:47;;;;;;;4.93;2.15;;;;;;;;;;5034503;28;20414;-68
2023/08/08 09:44:12;;;;;;;5.18;1.90;;;;;;;;;;5043952;28;20032;-68
2023/08/08 09:46:39;;;;;;;5.18;2.20;;;;;;;;;;5044169;28;20135;-68
2023/08/08 09:49:06;;;;;;;4.85;1.90;;;;;;;;;;5043557;28;20525;-68
2023/08/08 09:51:33;;;;;;;5.38;2.33;;;;;;;;;;5045006;28;20124;-68
2023/08/08 09:53:59;;;;;;;5.57;2.10;;;;;;;;;;5044386;28;20039;-68
2023/08/08 09:56:25;;;;;;;9.13;2.20;;;;;;;;;;5045528;28;20029;-68
2023/08/08 09:58:51;;;;;;;3.78;1.98;;;;;;;;;;5044971;28;20043;-68
2023/08/08 10:01:17;;;;;;;8.10;2.10;;;;;;;;;;5044703;28;20067;-68
2023/08/08 10:03:43;;;;;;;3.35;2.10;;;;;;;;;;5045685;28;20041;-68
2023/08/08 10:06:09;;;;;;;7.38;2.00;;;;;;;;;;5044731;28;20429;-68
2023/08/08 10:08:35;;;;;;;4.13;2.00;;;;;;;;;;5047883;28;20025;-68
2023/08/08 10:11:01;;;;;;;7.75;1.90;;;;;;;;;;5052412;28;20033;-68
2023/08/08 10:13:27;;;;;;;6.57;1.95;;;;;;;;;;5050497;28;20723;-68
2023/08/08 10:15:54;;;;;;;4.75;2.22;;;;;;;;;;5046962;28;20102;-68
2023/08/08 10:18:23;;;;;;;3.92;2.05;;;;;;;;;;5039027;28;20068;-70
2023/08/08 10:20:50;;;;;;;3.03;1.88;;;;;;;;;;5035060;28;20025;-70
2023/08/08 10:23:19;;;;;;;4.00;1.52;;;;;;;;;;5023690;28;20095;-71
2023/08/08 10:25:50;;;;;;;5.53;1.92;;;;;;;;;;5023650;28;20048;-71
2023/08/08 10:28:18;;;;;;;6.32;1.95;;;;;;;;;;5039766;28;20041;-71
2023/08/08 10:30:52;;;;;;;4.82;2.08;;;;;;;;;;5039795;28;20166;-70
2023/08/08 10:33:18;;;;;;;;;;;;;;;;;;5023829;28;20098;-70
2023/08/08 10:36:09;;;;;;;3.03;1.80;;;;;;;;;;5024924;28;19919;-69
2023/08/08 10:38:52;;;;;;;5.93;1.92;;;;;;;;;;5022138;28;20034;-70
2023/08/08 10:41:19;;;;;;;3.57;1.50;;;;;;;;;;5003871;28;20108;-70
2023/08/08 10:43:51;;;;;;;3.95;1.80;;;;;;;;;;5033597;28;20041;-70
2023/08/08 10:46:24;;;;;;;2.58;1.60;;;;;;;;;;5037051;28;20044;-70
2023/08/08 10:48:55;;;;;;;1.88;1.40;;;;;;;;;;5041568;28;20456;-70
2023/08/08 10:51:21;;;;;;;6.97;1.50;;;;;;;;;;5044425;28;20041;-70
2023/08/08 10:53:50;;;;;;;2.42;1.30;;;;;;;;;;5044388;28;20021;-70
2023/08/08 10:56:18;;;;;;;4.70;1.40;;;;;;;;;;5044252;28;20486;-71
2023/08/08 10:58:48;;;;;;;3.15;1.38;;;;;;;;;;5035432;28;20033;-71
2023/08/08 11:01:16;;;;;;;2.17;1.45;;;;;;;;;;5043753;28;20025;-71
2023/08/08 11:03:42;;;;;;;3.88;1.42;;;;;;;;;;5043781;28;20068;-71
2023/08/08 11:06:08;;;;;;;2.38;1.33;;;;;;;;;;5043597;28;20154;-71
2023/08/08 11:08:36;;;;;;;2.58;1.27;;;;;;;;;;5043654;28;20489;-71
2023/08/08 11:11:03;;;;;;;2.45;1.30;;;;;;;;;;5043676;28;20067;-70
2023/08/08 11:13:28;;;;;;;3.75;1.25;;;;;;;;;;5043008;28;20510;-71
2023/08/08 11:15:54;;;;;;;4.60;1.30;;;;;;;;;;5043936;28;20040;-71
2023/08/08 11:18:20;;;;;;;4.47;1.30;;;;;;;;;;5042696;28;20037;-71
2023/08/08 11:20:45;;;;;;;4.03;1.25;;;;;;;;;;5044147;28;20029;-71
2023/08/08 11:23:12;;;;;;;2.53;1.08;;;;;;;;;;5044319;28;20025;-71
2023/08/08 11:25:41;;;;;;;5.32;1.70;;;;;;;;;;5043773;28;20104;-71
2023/08/08 11:28:07;;;;;;;3.00;1.33;;;;;;;;;;5044940;28;20075;-71
2023/08/08 11:30:34;;;;;;;3.20;1.50;;;;;;;;;;5043524;28;20060;-71
2023/08/08 11:33:00;;;;;;;6.07;1.40;;;;;;;;;;5050334;28;20045;-71
2023/08/08 11:35:27;;;;;;;2.30;1.40;;;;;;;;;;5055070;28;20116;-71
2023/08/08 11:37:54;;;;;;;3.78;1.42;;;;;;;;;;5043854;28;20110;-71
2023/08/08 11:40:20;;;;;;;3.10;1.50;;;;;;;;;;5043988;28;20108;-71
2023/08/08 11:42:46;;;;;;;3.65;1.38;;;;;;;;;;5043037;28;20037;-71
2023/08/08 11:45:12;;;;;;;2.88;1.30;;;;;;;;;;5037868;28;20034;-71
2023/08/08 11:47:41;;;;;;;7.00;1.70;;;;;;;;;;5037665;28;20032;-71
2023/08/08 11:50:09;;;;;;;1.95;1.40;;;;;;;;;;5044080;28;20041;-71
2023/08/08 11:52:39;;;;;;;8.00;1.48;;;;;;;;;;5044861;28;20036;-70
2023/08/08 11:55:05;;;;;;;3.75;1.38;;;;;;;;;;5037215;28;20100;-71
2023/08/08 11:57:32;;;;;;;2.03;1.30;;;;;;;;;;5062620;28;20033;-71
2023/08/08 11:59:57;;;;;;;2.75;1.58;;;;;;;;;;5047043;28;20941;-71
2023/08/08 12:02:23;;;;;;;3.58;1.40;;;;;;;;;;5046622;28;20064;-71
2023/08/08 12:04:49;;;;;;;4.40;1.50;;;;;;;;;;5047150;28;20028;-71
2023/08/08 12:07:16;;;;;;;1.67;1.17;;;;;;;;;;5047684;28;20409;-71
2023/08/08 12:09:42;;;;;;;2.13;1.40;;;;;;;;;;5047498;28;20084;-71
2023/08/08 12:12:08;;;;;;;1.83;1.10;;;;;;;;;;5046824;28;20053;-71
2023/08/08 12:14:38;;;;;;;4.85;1.50;;;;;;;;;;5047081;28;20065;-71
2023/08/08 12:17:04;;;;;;;2.03;1.33;;;;;;;;;;5046174;28;20041;-71
2023/08/08 12:19:29;;;;;;;1.10;1.00;;;;;;;;;;5047162;28;20021;-71
2023/08/08 12:21:54;;;;;;;3.00;1.20;;;;;;;;;;5046700;28;20437;-71
2023/08/08 12:24:20;;;;;;;2.40;1.20;;;;;;;;;;5046544;28;20068;-71
2023/08/08 12:26:46;;;;;;;2.78;1.27;;;;;;;;;;5047121;28;20048;-71
2023/08/08 12:29:12;;;;;;;1.42;1.20;;;;;;;;;;5044525;28;20037;-71
2023/08/08 12:31:38;;;;;;;3.28;1.35;;;;;;;;;;5055821;28;20055;-71
2023/08/08 12:34:03;;;;;;;2.25;1.35;;;;;;;;;;5045855;28;20037;-71
2023/08/08 12:36:29;;;;;;;6.63;1.63;;;;;;;;;;5046826;28;20544;-71
2023/08/08 12:38:54;;;;;;;2.47;1.20;;;;;;;;;;5046354;28;20029;-71
2023/08/08 12:41:20;;;;;;;3.78;1.73;;;;;;;;;;5046814;28;20037;-71
2023/08/08 12:43:45;;;;;;;4.05;1.85;;;;;;;;;;5046783;28;20082;-71
2023/08/08 12:46:10;;;;;;;2.72;1.33;;;;;;;;;;5030696;28;20029;-71
2023/08/08 12:48:36;;;;;;;2.40;1.40;;;;;;;;;;5026386;28;20029;-72
2023/08/08 12:51:02;;;;;;;9.55;1.70;;;;;;;;;;5027362;28;20037;-71
2023/08/08 12:53:27;;;;;;;2.75;1.30;;;;;;;;;;5036872;28;20037;-71
2023/08/08 12:55:53;;;;;;;2.88;1.30;;;;;;;;;;5054108;28;20032;-71
2023/08/08 12:58:18;;;;;;;3.17;1.73;;;;;;;;;;5056435;28;20121;-71
2023/08/08 13:00:45;;;;;;;6.68;1.30;;;;;;;;;;5047997;28;20033;-71
2023/08/08 13:03:12;;;;;;;1.52;1.17;;;;;;;;;;5046953;28;20041;-71
2023/08/08 13:05:37;;;;;;;3.83;1.35;;;;;;;;;;5046742;28;20052;-71
2023/08/08 13:08:03;;;;;;;1.55;1.13;;;;;;;;;;5046027;28;20033;-71
2023/08/08 13:10:29;;;;;;;2.17;0.95;;;;;;;;;;5045083;28;20098;-71
2023/08/08 13:12:55;;;;;;;1.70;1.17;;;;;;;;;;5045347;28;20036;-71
2023/08/08 13:15:21;;;;;;;1.52;1.10;;;;;;;;;;5044814;28;20041;-71
2023/08/08 13:17:46;;;;;;;2.10;1.10;;;;;;;;;;5045535;28;20089;-71
2023/08/08 13:20:12;;;;;;;2.22;1.30;;;;;;;;;;5045985;28;20911;-71
2023/08/08 13:22:38;;;;;;;3.30;1.40;;;;;;;;;;5049875;28;20028;-70
2023/08/08 13:25:05;;;;;;;2.95;1.48;;;;;;;;;;5044458;28;20017;-71
2023/08/08 13:27:31;;;;;;;2.13;1.50;;;;;;;;;;5045540;28;20067;-71
2023/08/08 13:29:57;;;;;;;1.98;1.13;;;;;;;;;;5045400;28;20088;-71
2023/08/08 13:32:22;;;;;;;2.38;1.30;;;;;;;;;;5045966;28;20033;-71
2023/08/08 13:34:48;;;;;;;2.83;1.25;;;;;;;;;;5045290;28;20021;-71
2023/08/08 13:37:16;;;;;;;3.95;1.40;;;;;;;;;;5045953;28;20506;-71
2023/08/08 13:39:41;;;;;;;1.88;1.10;;;;;;;;;;5044356;28;20422;-71
2023/08/08 13:42:08;;;;;;;3.30;1.70;;;;;;;;;;5038916;28;20037;-70
2023/08/08 13:44:34;;;;;;;4.32;1.50;;;;;;;;;;5038430;28;20593;-71
2023/08/08 13:46:59;;;;;;;1.73;1.42;;;;;;;;;;5037812;28;20037;-70
2023/08/08 13:49:28;;;;;;;3.33;1.30;;;;;;;;;;5043369;28;20454;-71
2023/08/08 13:51:53;;;;;;;3.03;1.40;;;;;;;;;;5040826;28;20051;-71
2023/08/08 13:54:19;;;;;;;2.20;1.42;;;;;;;;;;5027896;28;20033;-71
2023/08/08 13:56:45;;;;;;;4.28;1.48;;;;;;;;;;5034621;28;20074;-70
2023/08/08 13:59:10;;;;;;;2.17;1.50;;;;;;;;;;5039515;28;20489;-70
2023/08/08 14:01:36;;;;;;;2.13;1.50;;;;;;;;;;5035617;28;20035;-70
2023/08/08 14:04:01;;;;;;;2.50;1.35;;;;;;;;;;5044840;28;20020;-71
2023/08/08 14:06:27;;;;;;;2.25;1.50;;;;;;;;;;5040722;28;20041;-70
2023/08/08 14:08:52;;;;;;;4.32;1.40;;;;;;;;;;5035088;28;20450;-69
2023/08/08 14:11:18;;;;;;;2.78;1.50;;;;;;;;;;5040974;28;20045;-70
2023/08/08 14:13:43;;;;;;;3.13;1.50;;;;;;;;;;5044747;28;20743;-69
2023/08/08 14:16:09;;;;;;;2.53;1.48;;;;;;;;;;5040409;28;20033;-70
2023/08/08 14:18:34;;;;;;;8.30;1.55;;;;;;;;;;5047613;28;20071;-70
2023/08/08 14:21:02;;;;;;;3.00;1.42;;;;;;;;;;5052833;28;20078;-70
2023/08/08 14:23:27;;;;;;;2.53;1.70;;;;;;;;;;5043777;28;20033;-71
2023/08/08 14:25:53;;;;;;;3.95;1.65;;;;;;;;;;5036115;28;20052;-70
2023/08/08 14:28:18;;;;;;;3.55;1.77;;;;;;;;;;5035767;28;20036;-69
2023/08/08 14:30:43;;;;;;;5.68;1.60;;;;;;;;;;5039756;28;20537;-70
2023/08/08 14:33:09;;;;;;;3.55;1.50;;;;;;;;;;5040518;28;20037;-69